createdAt,value
2022-08-20T00:01:25.493Z,38.67
2022-08-20T00:04:46.437Z,38.82
2022-08-20T00:08:07.446Z,39.11
2022-08-20T00:11:34.424Z,39.25
2022-08-20T00:14:56.434Z,39.69
2022-08-20T00:18:18.428Z,39.69
2022-08-20T00:21:39.433Z,39.77
2022-08-20T00:25:00.427Z,40.00
2022-08-20T00:28:21.432Z,40.10
2022-08-20T00:31:42.421Z,40.39
2022-08-20T00:35:03.439Z,40.46
2022-08-20T00:38:24.427Z,40.55
2022-08-20T00:41:45.449Z,40.77
2022-08-20T00:45:06.438Z,40.85
2022-08-20T00:48:27.448Z,41.08
2022-08-20T00:51:56.448Z,41.27
2022-08-20T00:55:20.499Z,41.54
2022-08-20T00:58:42.442Z,41.64
2022-08-20T01:02:04.477Z,41.87
2022-08-20T01:05:29.708Z,41.90
2022-08-20T01:08:43.450Z,42.08
2022-08-20T01:12:04.447Z,42.32
2022-08-20T01:15:30.843Z,42.34
2022-08-20T01:18:53.429Z,42.56
2022-08-20T01:22:36.453Z,42.47
2022-08-20T01:26:18.465Z,42.59
2022-08-20T01:29:47.465Z,42.81
2022-08-20T01:33:09.459Z,43.00
2022-08-20T01:36:34.442Z,43.11
2022-08-20T01:39:55.499Z,43.20
2022-08-20T01:43:18.438Z,43.45
2022-08-20T01:46:50.472Z,43.61
2022-08-20T01:50:29.458Z,43.54
2022-08-20T01:53:53.456Z,43.65
2022-08-20T01:57:18.452Z,43.55
2022-08-20T02:00:41.467Z,43.71
2022-08-20T02:04:02.455Z,43.73
2022-08-20T02:07:31.477Z,43.66
2022-08-20T02:10:53.469Z,43.69
2022-08-20T02:14:15.462Z,43.64
2022-08-20T02:17:38.447Z,43.79
2022-08-20T02:21:01.467Z,43.77
2022-08-20T02:24:22.500Z,43.85
2022-08-20T02:27:44.473Z,44.04
2022-08-20T02:31:08.470Z,44.09
2022-08-20T02:34:29.479Z,43.97
2022-08-20T02:37:44.488Z,44.12
2022-08-20T02:41:05.515Z,44.07
2022-08-20T02:44:28.516Z,43.98
2022-08-20T02:47:50.518Z,44.05
2022-08-20T02:51:15.495Z,43.73
2022-08-20T02:54:36.486Z,43.78
2022-08-20T02:57:58.721Z,43.77
2022-08-20T03:01:24.502Z,43.69
2022-08-20T03:04:45.487Z,43.69
2022-08-20T03:08:07.482Z,43.90
2022-08-20T03:11:28.505Z,43.58
2022-08-20T03:14:49.485Z,43.88
2022-08-20T03:18:10.482Z,43.65
2022-08-20T03:21:31.467Z,43.52
2022-08-20T03:24:52.484Z,43.48
2022-08-20T03:28:14.462Z,43.42
2022-08-20T03:31:36.488Z,43.51
2022-08-20T03:34:57.471Z,43.82
2022-08-20T03:38:32.952Z,43.83
2022-08-20T03:41:54.483Z,43.92
2022-08-20T03:45:20.249Z,43.86
2022-08-20T03:48:42.471Z,43.74
2022-08-20T03:52:04.487Z,43.78
2022-08-20T03:55:25.485Z,43.79
2022-08-20T03:58:47.491Z,43.98
2022-08-20T04:02:08.503Z,43.70
2022-08-20T04:05:29.491Z,43.44
2022-08-20T04:08:50.519Z,43.15
2022-08-20T04:12:11.531Z,42.79
2022-08-20T04:15:32.515Z,42.45
2022-08-20T04:18:58.632Z,42.02
2022-08-20T04:22:23.502Z,41.86
2022-08-20T04:25:47.484Z,41.32
2022-08-20T04:29:08.509Z,41.24
2022-08-20T04:32:29.564Z,40.67
2022-08-20T04:35:50.521Z,40.38
2022-08-20T04:39:11.519Z,39.85
2022-08-20T04:42:32.497Z,39.98
2022-08-20T04:45:53.503Z,40.29
2022-08-20T04:49:14.506Z,40.41
2022-08-20T04:52:35.500Z,40.35
2022-08-20T04:55:59.512Z,40.26
2022-08-20T04:59:20.529Z,40.31
2022-08-20T05:02:42.518Z,40.43
2022-08-20T05:06:03.496Z,40.17
2022-08-20T05:09:24.545Z,40.67
2022-08-20T05:12:56.470Z,40.30
2022-08-20T05:16:17.530Z,40.05
2022-08-20T05:19:39.013Z,39.74
2022-08-20T05:23:00.524Z,39.35
2022-08-20T05:26:22.514Z,38.78
2022-08-20T05:29:43.529Z,38.46
2022-08-20T05:33:04.540Z,38.25
2022-08-20T05:36:25.513Z,38.17
2022-08-20T05:39:46.552Z,38.12
2022-08-20T05:43:07.523Z,37.86
2022-08-20T05:46:28.535Z,37.51
2022-08-20T05:49:50.531Z,37.43
2022-08-20T05:53:11.554Z,37.22
2022-08-20T05:56:32.521Z,36.89
2022-08-20T05:59:53.536Z,36.90
2022-08-20T06:03:32.524Z,36.89
2022-08-20T06:06:54.545Z,36.34
2022-08-20T06:10:16.539Z,36.46
2022-08-20T06:13:37.558Z,35.89
2022-08-20T06:16:59.142Z,35.89
2022-08-20T06:20:21.544Z,35.54
2022-08-20T06:23:56.387Z,35.25
2022-08-20T06:27:19.617Z,34.78
2022-08-20T06:30:40.522Z,34.62
2022-08-20T06:34:01.561Z,34.19
2022-08-20T06:37:31.157Z,34.06
2022-08-20T06:40:52.558Z,33.72
2022-08-20T06:44:13.542Z,33.75
2022-08-20T06:47:35.555Z,33.30
2022-08-20T06:50:59.528Z,33.01
2022-08-20T06:54:20.552Z,33.34
2022-08-20T06:57:51.539Z,32.58
2022-08-20T07:01:12.630Z,32.38
2022-08-20T07:04:33.606Z,32.05
2022-08-20T07:07:58.555Z,32.05
2022-08-20T07:11:22.480Z,31.93
2022-08-20T07:14:47.569Z,31.94
2022-08-20T07:18:11.572Z,31.95
2022-08-20T07:21:25.557Z,31.41
2022-08-20T07:24:49.142Z,31.21
2022-08-20T07:28:20.559Z,31.04
2022-08-20T07:32:00.577Z,30.57
2022-08-20T07:35:25.564Z,30.36
2022-08-20T07:38:47.572Z,30.02
2022-08-20T07:42:13.551Z,30.27
2022-08-20T07:45:34.569Z,30.53
2022-08-20T07:48:57.571Z,29.64
2022-08-20T07:52:19.566Z,30.00
2022-08-20T07:55:41.567Z,29.54
2022-08-20T07:59:17.563Z,29.30
2022-08-20T08:02:41.567Z,29.18
2022-08-20T08:06:03.599Z,29.23
2022-08-20T08:09:27.592Z,29.31
2022-08-20T08:12:58.715Z,29.79
2022-08-20T08:16:22.600Z,29.31
2022-08-20T08:19:47.582Z,29.62
2022-08-20T08:23:08.605Z,29.09
2022-08-20T08:26:45.581Z,28.52
2022-08-20T08:30:06.626Z,28.11
2022-08-20T08:33:37.571Z,28.30
2022-08-20T08:36:58.591Z,28.46
2022-08-20T08:40:19.690Z,28.21
2022-08-20T08:43:34.601Z,28.60
2022-08-20T08:46:58.586Z,28.29
2022-08-20T08:50:43.843Z,28.64
2022-08-20T08:54:07.257Z,28.79
2022-08-20T08:57:28.595Z,28.69
2022-08-20T09:00:56.133Z,28.93
2022-08-20T09:04:21.846Z,29.48
2022-08-20T09:07:46.590Z,29.52
2022-08-20T09:11:07.613Z,29.47
2022-08-20T09:14:28.568Z,29.77
2022-08-20T09:17:49.708Z,30.04
